sensor_id;sensor_type;location;lat;lon;timestamp;P1;durP1;ratioP1;P2;durP2;ratioP2
49175;SDS011;35012;47.200;9.748;2023-02-04T00:02:23;2.97;;;2.40;;
49175;SDS011;35012;47.200;9.748;2023-02-04T00:04:49;2.83;;;2.40;;
49175;SDS011;35012;47.200;9.748;2023-02-04T00:07:14;3.00;;;2.70;;
49175;SDS011;35012;47.200;9.748;2023-02-04T00:09:42;2.70;;;2.50;;
49175;SDS011;35012;47.200;9.748;2023-02-04T00:12:10;2.80;;;2.47;;
49175;SDS011;35012;47.200;9.748;2023-02-04T00:14:36;3.00;;;2.67;;
49175;SDS011;35012;47.200;9.748;2023-02-04T00:17:02;3.27;;;2.90;;
49175;SDS011;35012;47.200;9.748;2023-02-04T00:19:27;2.73;;;2.50;;
49175;SDS011;35012;47.200;9.748;2023-02-04T00:21:53;2.87;;;2.63;;
49175;SDS011;35012;47.200;9.748;2023-02-04T00:24:18;2.70;;;2.33;;
49175;SDS011;35012;47.200;9.748;2023-02-04T00:26:44;3.07;;;2.53;;
49175;SDS011;35012;47.200;9.748;2023-02-04T00:29:09;4.87;;;2.70;;
49175;SDS011;35012;47.200;9.748;2023-02-04T00:31:35;3.30;;;3.00;;
49175;SDS011;35012;47.200;9.748;2023-02-04T00:34:00;2.80;;;2.60;;
49175;SDS011;35012;47.200;9.748;2023-02-04T00:36:25;3.20;;;2.90;;
49175;SDS011;35012;47.200;9.748;2023-02-04T00:38:51;3.30;;;3.00;;
49175;SDS011;35012;47.200;9.748;2023-02-04T00:41:16;5.17;;;3.03;;
49175;SDS011;35012;47.200;9.748;2023-02-04T00:43:42;4.37;;;3.50;;
49175;SDS011;35012;47.200;9.748;2023-02-04T00:46:07;3.40;;;3.10;;
49175;SDS011;35012;47.200;9.748;2023-02-04T00:48:33;3.67;;;3.37;;
49175;SDS011;35012;47.200;9.748;2023-02-04T00:50:59;3.70;;;3.13;;
49175;SDS011;35012;47.200;9.748;2023-02-04T00:53:25;3.73;;;2.93;;
49175;SDS011;35012;47.200;9.748;2023-02-04T00:55:50;3.33;;;2.97;;
49175;SDS011;35012;47.200;9.748;2023-02-04T00:58:16;3.53;;;2.77;;
49175;SDS011;35012;47.200;9.748;2023-02-04T01:00:41;3.77;;;3.40;;
49175;SDS011;35012;47.200;9.748;2023-02-04T01:03:07;3.07;;;2.80;;
49175;SDS011;35012;47.200;9.748;2023-02-04T01:05:33;2.93;;;2.73;;
49175;SDS011;35012;47.200;9.748;2023-02-04T01:07:58;2.90;;;2.60;;
49175;SDS011;35012;47.200;9.748;2023-02-04T01:10:24;12.77;;;3.50;;
49175;SDS011;35012;47.200;9.748;2023-02-04T01:12:49;4.40;;;2.87;;
49175;SDS011;35012;47.200;9.748;2023-02-04T01:15:15;3.07;;;2.77;;
49175;SDS011;35012;47.200;9.748;2023-02-04T01:17:40;5.40;;;3.20;;
49175;SDS011;35012;47.200;9.748;2023-02-04T01:20:06;5.07;;;4.37;;
49175;SDS011;35012;47.200;9.748;2023-02-04T01:22:32;4.33;;;3.80;;
49175;SDS011;35012;47.200;9.748;2023-02-04T01:24:58;3.67;;;2.87;;
49175;SDS011;35012;47.200;9.748;2023-02-04T01:27:24;3.60;;;3.30;;
49175;SDS011;35012;47.200;9.748;2023-02-04T01:29:49;4.63;;;4.00;;
49175;SDS011;35012;47.200;9.748;2023-02-04T01:32:15;4.87;;;4.27;;
49175;SDS011;35012;47.200;9.748;2023-02-04T01:34:40;3.90;;;3.60;;
49175;SDS011;35012;47.200;9.748;2023-02-04T01:37:06;5.43;;;3.40;;
49175;SDS011;35012;47.200;9.748;2023-02-04T01:39:31;4.33;;;3.63;;
49175;SDS011;35012;47.200;9.748;2023-02-04T01:41:58;3.93;;;3.17;;
49175;SDS011;35012;47.200;9.748;2023-02-04T01:44:25;4.50;;;3.30;;
49175;SDS011;35012;47.200;9.748;2023-02-04T01:46:51;3.50;;;3.20;;
49175;SDS011;35012;47.200;9.748;2023-02-04T01:49:17;3.40;;;3.10;;
49175;SDS011;35012;47.200;9.748;2023-02-04T01:51:42;3.03;;;2.77;;
49175;SDS011;35012;47.200;9.748;2023-02-04T01:54:09;3.50;;;2.90;;
49175;SDS011;35012;47.200;9.748;2023-02-04T01:56:36;3.90;;;2.70;;
49175;SDS011;35012;47.200;9.748;2023-02-04T01:59:08;3.00;;;2.70;;
49175;SDS011;35012;47.200;9.748;2023-02-04T02:01:39;3.87;;;2.93;;
49175;SDS011;35012;47.200;9.748;2023-02-04T02:04:09;3.43;;;3.13;;
49175;SDS011;35012;47.200;9.748;2023-02-04T02:06:37;3.07;;;2.80;;
49175;SDS011;35012;47.200;9.748;2023-02-04T02:09:04;3.40;;;2.43;;
49175;SDS011;35012;47.200;9.748;2023-02-04T02:11:30;4.80;;;2.87;;
49175;SDS011;35012;47.200;9.748;2023-02-04T02:13:56;3.03;;;2.73;;
49175;SDS011;35012;47.200;9.748;2023-02-04T02:16:21;3.47;;;3.17;;
49175;SDS011;35012;47.200;9.748;2023-02-04T02:18:47;4.20;;;3.80;;
49175;SDS011;35012;47.200;9.748;2023-02-04T02:21:13;3.97;;;3.57;;
49175;SDS011;35012;47.200;9.748;2023-02-04T02:23:48;4.00;;;3.60;;
49175;SDS011;35012;47.200;9.748;2023-02-04T02:26:18;4.60;;;4.20;;
49175;SDS011;35012;47.200;9.748;2023-02-04T02:28:45;4.50;;;4.10;;
49175;SDS011;35012;47.200;9.748;2023-02-04T02:31:12;4.63;;;4.23;;
49175;SDS011;35012;47.200;9.748;2023-02-04T02:33:38;5.27;;;4.77;;
49175;SDS011;35012;47.200;9.748;2023-02-04T02:36:04;5.00;;;4.40;;
49175;SDS011;35012;47.200;9.748;2023-02-04T02:38:30;5.10;;;4.70;;
49175;SDS011;35012;47.200;9.748;2023-02-04T02:40:56;5.70;;;5.10;;
49175;SDS011;35012;47.200;9.748;2023-02-04T02:43:22;3.33;;;3.03;;
49175;SDS011;35012;47.200;9.748;2023-02-04T02:45:49;20.73;;;4.40;;
49175;SDS011;35012;47.200;9.748;2023-02-04T02:48:15;4.07;;;3.27;;
49175;SDS011;35012;47.200;9.748;2023-02-04T02:50:41;4.07;;;3.67;;
49175;SDS011;35012;47.200;9.748;2023-02-04T02:53:11;3.20;;;2.93;;
49175;SDS011;35012;47.200;9.748;2023-02-04T02:55:37;3.13;;;2.83;;
49175;SDS011;35012;47.200;9.748;2023-02-04T02:58:04;3.13;;;2.83;;
49175;SDS011;35012;47.200;9.748;2023-02-04T03:00:29;3.70;;;3.30;;
49175;SDS011;35012;47.200;9.748;2023-02-04T03:05:34;3.73;;;3.43;;
49175;SDS011;35012;47.200;9.748;2023-02-04T03:08:02;4.00;;;3.70;;
49175;SDS011;35012;47.200;9.748;2023-02-04T03:10:28;4.30;;;3.90;;
49175;SDS011;35012;47.200;9.748;2023-02-04T03:12:53;3.83;;;3.53;;
49175;SDS011;35012;47.200;9.748;2023-02-04T03:15:19;3.90;;;3.50;;
49175;SDS011;35012;47.200;9.748;2023-02-04T03:17:45;3.90;;;3.50;;
49175;SDS011;35012;47.200;9.748;2023-02-04T03:20:11;3.50;;;3.20;;
49175;SDS011;35012;47.200;9.748;2023-02-04T03:22:38;3.50;;;3.20;;
49175;SDS011;35012;47.200;9.748;2023-02-04T03:25:03;3.63;;;3.27;;
49175;SDS011;35012;47.200;9.748;2023-02-04T03:27:29;4.00;;;3.70;;
49175;SDS011;35012;47.200;9.748;2023-02-04T03:29:54;3.47;;;3.10;;
49175;SDS011;35012;47.200;9.748;2023-02-04T03:32:20;2.83;;;2.63;;
49175;SDS011;35012;47.200;9.748;2023-02-04T03:34:45;3.30;;;3.00;;
49175;SDS011;35012;47.200;9.748;2023-02-04T03:37:11;3.50;;;3.20;;
49175;SDS011;35012;47.200;9.748;2023-02-04T03:39:36;3.57;;;3.13;;
49175;SDS011;35012;47.200;9.748;2023-02-04T03:42:02;3.60;;;3.30;;
49175;SDS011;35012;47.200;9.748;2023-02-04T03:44:28;4.10;;;3.70;;
49175;SDS011;35012;47.200;9.748;2023-02-04T03:46:53;4.60;;;4.20;;
49175;SDS011;35012;47.200;9.748;2023-02-04T03:49:22;4.77;;;4.27;;
49175;SDS011;35012;47.200;9.748;2023-02-04T03:51:48;5.07;;;3.97;;
49175;SDS011;35012;47.200;9.748;2023-02-04T03:54:13;5.47;;;4.40;;
49175;SDS011;35012;47.200;9.748;2023-02-04T03:56:39;5.03;;;4.50;;
49175;SDS011;35012;47.200;9.748;2023-02-04T03:59:04;4.30;;;3.77;;
49175;SDS011;35012;47.200;9.748;2023-02-04T04:01:30;4.37;;;3.97;;
49175;SDS011;35012;47.200;9.748;2023-02-04T04:03:55;4.77;;;4.27;;
49175;SDS011;35012;47.200;9.748;2023-02-04T04:06:21;6.03;;;4.30;;
49175;SDS011;35012;47.200;9.748;2023-02-04T04:08:46;4.53;;;3.87;;
49175;SDS011;35012;47.200;9.748;2023-02-04T04:11:12;4.23;;;3.90;;
49175;SDS011;35012;47.200;9.748;2023-02-04T04:13:37;4.53;;;4.13;;
49175;SDS011;35012;47.200;9.748;2023-02-04T04:16:03;4.00;;;3.70;;
49175;SDS011;35012;47.200;9.748;2023-02-04T04:18:29;4.37;;;4.00;;
49175;SDS011;35012;47.200;9.748;2023-02-04T04:20:57;4.30;;;3.67;;
49175;SDS011;35012;47.200;9.748;2023-02-04T04:23:22;4.87;;;4.47;;
49175;SDS011;35012;47.200;9.748;2023-02-04T04:25:48;5.47;;;4.97;;
49175;SDS011;35012;47.200;9.748;2023-02-04T04:28:13;6.83;;;6.20;;
49175;SDS011;35012;47.200;9.748;2023-02-04T04:30:39;7.13;;;6.43;;
49175;SDS011;35012;47.200;9.748;2023-02-04T04:33:04;6.90;;;6.30;;
49175;SDS011;35012;47.200;9.748;2023-02-04T04:35:31;8.37;;;7.50;;
49175;SDS011;35012;47.200;9.748;2023-02-04T04:37:59;9.13;;;8.23;;
49175;SDS011;35012;47.200;9.748;2023-02-04T04:40:25;9.07;;;8.10;;
49175;SDS011;35012;47.200;9.748;2023-02-04T04:42:51;7.77;;;6.97;;
49175;SDS011;35012;47.200;9.748;2023-02-04T04:45:17;9.30;;;8.33;;
49175;SDS011;35012;47.200;9.748;2023-02-04T04:47:44;9.17;;;8.10;;
49175;SDS011;35012;47.200;9.748;2023-02-04T04:50:09;8.80;;;7.90;;
49175;SDS011;35012;47.200;9.748;2023-02-04T04:52:36;5.93;;;5.33;;
49175;SDS011;35012;47.200;9.748;2023-02-04T04:55:02;5.00;;;4.30;;
49175;SDS011;35012;47.200;9.748;2023-02-04T04:57:28;4.90;;;3.63;;
49175;SDS011;35012;47.200;9.748;2023-02-04T04:59:54;4.40;;;4.00;;
49175;SDS011;35012;47.200;9.748;2023-02-04T05:02:19;7.20;;;5.30;;
49175;SDS011;35012;47.200;9.748;2023-02-04T05:04:46;6.10;;;4.97;;
49175;SDS011;35012;47.200;9.748;2023-02-04T05:07:12;7.33;;;5.83;;
49175;SDS011;35012;47.200;9.748;2023-02-04T05:09:39;6.77;;;5.20;;
49175;SDS011;35012;47.200;9.748;2023-02-04T05:12:04;6.00;;;5.30;;
49175;SDS011;35012;47.200;9.748;2023-02-04T05:14:31;5.10;;;4.33;;
49175;SDS011;35012;47.200;9.748;2023-02-04T05:16:58;5.43;;;4.60;;
49175;SDS011;35012;47.200;9.748;2023-02-04T05:19:24;6.40;;;5.27;;
49175;SDS011;35012;47.200;9.748;2023-02-04T05:21:49;8.03;;;7.10;;
49175;SDS011;35012;47.200;9.748;2023-02-04T05:24:15;8.97;;;7.77;;
49175;SDS011;35012;47.200;9.748;2023-02-04T05:26:40;7.83;;;6.60;;
49175;SDS011;35012;47.200;9.748;2023-02-04T05:29:06;8.50;;;7.10;;
49175;SDS011;35012;47.200;9.748;2023-02-04T05:31:34;7.60;;;6.80;;
49175;SDS011;35012;47.200;9.748;2023-02-04T05:34:00;7.43;;;5.83;;
49175;SDS011;35012;47.200;9.748;2023-02-04T05:36:25;7.87;;;6.77;;
49175;SDS011;35012;47.200;9.748;2023-02-04T05:38:51;10.80;;;8.67;;
49175;SDS011;35012;47.200;9.748;2023-02-04T05:41:17;8.13;;;7.33;;
49175;SDS011;35012;47.200;9.748;2023-02-04T05:43:42;6.53;;;5.67;;
49175;SDS011;35012;47.200;9.748;2023-02-04T05:46:08;4.77;;;4.10;;
49175;SDS011;35012;47.200;9.748;2023-02-04T05:48:34;3.60;;;3.20;;
49175;SDS011;35012;47.200;9.748;2023-02-04T05:51:01;5.90;;;5.30;;
49175;SDS011;35012;47.200;9.748;2023-02-04T05:53:26;5.20;;;4.70;;
49175;SDS011;35012;47.200;9.748;2023-02-04T05:55:52;4.53;;;3.53;;
49175;SDS011;35012;47.200;9.748;2023-02-04T05:58:17;3.50;;;3.20;;
49175;SDS011;35012;47.200;9.748;2023-02-04T06:00:42;4.90;;;3.90;;
49175;SDS011;35012;47.200;9.748;2023-02-04T06:03:08;4.03;;;3.63;;
49175;SDS011;35012;47.200;9.748;2023-02-04T06:05:33;3.93;;;3.53;;
49175;SDS011;35012;47.200;9.748;2023-02-04T06:07:59;4.17;;;3.30;;
49175;SDS011;35012;47.200;9.748;2023-02-04T06:10:24;4.57;;;3.70;;
49175;SDS011;35012;47.200;9.748;2023-02-04T06:12:50;3.33;;;3.03;;
49175;SDS011;35012;47.200;9.748;2023-02-04T06:15:16;3.80;;;3.40;;
49175;SDS011;35012;47.200;9.748;2023-02-04T06:17:41;3.83;;;3.53;;
49175;SDS011;35012;47.200;9.748;2023-02-04T06:20:07;5.00;;;4.40;;
49175;SDS011;35012;47.200;9.748;2023-02-04T06:22:33;4.63;;;3.93;;
49175;SDS011;35012;47.200;9.748;2023-02-04T06:24:58;4.73;;;4.23;;
49175;SDS011;35012;47.200;9.748;2023-02-04T06:27:24;6.67;;;5.93;;
49175;SDS011;35012;47.200;9.748;2023-02-04T06:29:50;7.57;;;6.70;;
49175;SDS011;35012;47.200;9.748;2023-02-04T06:32:17;5.67;;;5.03;;
49175;SDS011;35012;47.200;9.748;2023-02-04T06:34:43;4.67;;;4.13;;
49175;SDS011;35012;47.200;9.748;2023-02-04T06:37:09;5.43;;;4.60;;
49175;SDS011;35012;47.200;9.748;2023-02-04T06:39:35;5.60;;;4.70;;
49175;SDS011;35012;47.200;9.748;2023-02-04T06:42:00;6.60;;;6.00;;
49175;SDS011;35012;47.200;9.748;2023-02-04T06:44:27;6.80;;;5.80;;
49175;SDS011;35012;47.200;9.748;2023-02-04T06:46:52;5.13;;;4.63;;
49175;SDS011;35012;47.200;9.748;2023-02-04T06:49:19;5.57;;;5.00;;
49175;SDS011;35012;47.200;9.748;2023-02-04T06:51:44;7.20;;;5.13;;
49175;SDS011;35012;47.200;9.748;2023-02-04T06:54:12;5.27;;;4.77;;
49175;SDS011;35012;47.200;9.748;2023-02-04T06:56:39;5.90;;;5.27;;
49175;SDS011;35012;47.200;9.748;2023-02-04T06:59:08;6.00;;;5.40;;
49175;SDS011;35012;47.200;9.748;2023-02-04T07:01:34;5.93;;;5.20;;
49175;SDS011;35012;47.200;9.748;2023-02-04T07:04:00;6.97;;;5.97;;
49175;SDS011;35012;47.200;9.748;2023-02-04T07:06:28;5.13;;;4.63;;
49175;SDS011;35012;47.200;9.748;2023-02-04T07:08:53;5.13;;;4.60;;
49175;SDS011;35012;47.200;9.748;2023-02-04T07:11:19;5.10;;;4.60;;
49175;SDS011;35012;47.200;9.748;2023-02-04T07:13:45;4.77;;;4.37;;
49175;SDS011;35012;47.200;9.748;2023-02-04T07:16:10;4.13;;;3.80;;
49175;SDS011;35012;47.200;9.748;2023-02-04T07:18:37;4.00;;;3.60;;
49175;SDS011;35012;47.200;9.748;2023-02-04T07:21:04;4.30;;;3.50;;
49175;SDS011;35012;47.200;9.748;2023-02-04T07:23:33;4.07;;;3.77;;
49175;SDS011;35012;47.200;9.748;2023-02-04T07:26:03;3.57;;;3.27;;
49175;SDS011;35012;47.200;9.748;2023-02-04T07:28:32;4.60;;;4.00;;
49175;SDS011;35012;47.200;9.748;2023-02-04T07:31:02;8.63;;;7.83;;
49175;SDS011;35012;47.200;9.748;2023-02-04T07:33:28;10.50;;;9.07;;
49175;SDS011;35012;47.200;9.748;2023-02-04T07:35:54;8.37;;;7.57;;
49175;SDS011;35012;47.200;9.748;2023-02-04T07:38:19;8.90;;;8.10;;
49175;SDS011;35012;47.200;9.748;2023-02-04T07:40:44;9.40;;;8.40;;
49175;SDS011;35012;47.200;9.748;2023-02-04T07:43:10;6.50;;;5.90;;
49175;SDS011;35012;47.200;9.748;2023-02-04T07:45:36;12.33;;;11.13;;
49175;SDS011;35012;47.200;9.748;2023-02-04T07:48:03;10.80;;;9.70;;
49175;SDS011;35012;47.200;9.748;2023-02-04T07:50:29;12.90;;;11.13;;
49175;SDS011;35012;47.200;9.748;2023-02-04T07:52:55;14.07;;;12.03;;
49175;SDS011;35012;47.200;9.748;2023-02-04T07:55:22;13.90;;;12.07;;
49175;SDS011;35012;47.200;9.748;2023-02-04T07:57:48;13.67;;;12.27;;
49175;SDS011;35012;47.200;9.748;2023-02-04T08:00:15;13.67;;;12.13;;
49175;SDS011;35012;47.200;9.748;2023-02-04T08:02:40;16.03;;;12.50;;
49175;SDS011;35012;47.200;9.748;2023-02-04T08:05:07;12.13;;;10.83;;
49175;SDS011;35012;47.200;9.748;2023-02-04T08:07:34;10.47;;;8.80;;
49175;SDS011;35012;47.200;9.748;2023-02-04T08:10:00;11.20;;;7.40;;
49175;SDS011;35012;47.200;9.748;2023-02-04T08:12:28;7.93;;;7.13;;
49175;SDS011;35012;47.200;9.748;2023-02-04T08:14:55;9.30;;;8.37;;
49175;SDS011;35012;47.200;9.748;2023-02-04T08:17:21;8.87;;;7.97;;
49175;SDS011;35012;47.200;9.748;2023-02-04T08:19:46;9.03;;;8.13;;
49175;SDS011;35012;47.200;9.748;2023-02-04T08:22:12;11.10;;;8.43;;
49175;SDS011;35012;47.200;9.748;2023-02-04T08:24:38;10.10;;;9.10;;
49175;SDS011;35012;47.200;9.748;2023-02-04T08:27:05;9.27;;;8.37;;
49175;SDS011;35012;47.200;9.748;2023-02-04T08:29:30;9.00;;;8.20;;
49175;SDS011;35012;47.200;9.748;2023-02-04T08:31:58;8.23;;;7.43;;
49175;SDS011;35012;47.200;9.748;2023-02-04T08:34:24;8.20;;;7.13;;
49175;SDS011;35012;47.200;9.748;2023-02-04T08:36:50;9.10;;;6.27;;
49175;SDS011;35012;47.200;9.748;2023-02-04T08:39:17;7.93;;;6.70;;
49175;SDS011;35012;47.200;9.748;2023-02-04T08:41:43;10.33;;;9.27;;
49175;SDS011;35012;47.200;9.748;2023-02-04T08:44:14;10.80;;;9.70;;
49175;SDS011;35012;47.200;9.748;2023-02-04T08:46:42;9.07;;;7.67;;
49175;SDS011;35012;47.200;9.748;2023-02-04T08:49:09;7.83;;;7.13;;
49175;SDS011;35012;47.200;9.748;2023-02-04T08:51:42;5.40;;;4.90;;
49175;SDS011;35012;47.200;9.748;2023-02-04T08:54:10;6.40;;;5.80;;
49175;SDS011;35012;47.200;9.748;2023-02-04T08:56:35;7.77;;;6.00;;
49175;SDS011;35012;47.200;9.748;2023-02-04T08:59:01;6.60;;;5.97;;
49175;SDS011;35012;47.200;9.748;2023-02-04T09:01:27;6.37;;;5.77;;
49175;SDS011;35012;47.200;9.748;2023-02-04T09:03:54;7.20;;;6.30;;
49175;SDS011;35012;47.200;9.748;2023-02-04T09:06:23;8.87;;;7.97;;
49175;SDS011;35012;47.200;9.748;2023-02-04T09:08:49;10.03;;;8.90;;
49175;SDS011;35012;47.200;9.748;2023-02-04T09:11:14;8.00;;;7.20;;
49175;SDS011;35012;47.200;9.748;2023-02-04T09:13:40;8.93;;;7.10;;
49175;SDS011;35012;47.200;9.748;2023-02-04T09:16:05;8.80;;;6.10;;
49175;SDS011;35012;47.200;9.748;2023-02-04T09:18:32;7.30;;;6.30;;
49175;SDS011;35012;47.200;9.748;2023-02-04T09:20:58;9.00;;;7.00;;
49175;SDS011;35012;47.200;9.748;2023-02-04T09:23:24;8.70;;;7.33;;
49175;SDS011;35012;47.200;9.748;2023-02-04T09:25:51;10.13;;;8.13;;
49175;SDS011;35012;47.200;9.748;2023-02-04T09:28:17;11.33;;;8.93;;
49175;SDS011;35012;47.200;9.748;2023-02-04T09:30:44;10.57;;;9.23;;
49175;SDS011;35012;47.200;9.748;2023-02-04T09:33:10;13.33;;;10.63;;
49175;SDS011;35012;47.200;9.748;2023-02-04T09:35:37;12.13;;;10.07;;
49175;SDS011;35012;47.200;9.748;2023-02-04T09:38:03;10.13;;;8.93;;
49175;SDS011;35012;47.200;9.748;2023-02-04T09:40:40;10.53;;;8.57;;
49175;SDS011;35012;47.200;9.748;2023-02-04T09:43:08;9.87;;;8.83;;
49175;SDS011;35012;47.200;9.748;2023-02-04T09:45:37;10.83;;;9.80;;
49175;SDS011;35012;47.200;9.748;2023-02-04T09:48:03;17.67;;;15.87;;
49175;SDS011;35012;47.200;9.748;2023-02-04T09:50:30;14.93;;;13.17;;
49175;SDS011;35012;47.200;9.748;2023-02-04T09:52:57;10.90;;;9.00;;
49175;SDS011;35012;47.200;9.748;2023-02-04T09:55:29;10.27;;;8.50;;
49175;SDS011;35012;47.200;9.748;2023-02-04T09:57:57;8.80;;;7.83;;
49175;SDS011;35012;47.200;9.748;2023-02-04T10:00:25;9.43;;;7.47;;
49175;SDS011;35012;47.200;9.748;2023-02-04T10:02:52;7.30;;;6.60;;
49175;SDS011;35012;47.200;9.748;2023-02-04T10:05:19;7.93;;;7.13;;
49175;SDS011;35012;47.200;9.748;2023-02-04T10:07:49;9.37;;;6.73;;
49175;SDS011;35012;47.200;9.748;2023-02-04T10:10:18;7.73;;;6.33;;
49175;SDS011;35012;47.200;9.748;2023-02-04T10:12:47;7.37;;;5.93;;
49175;SDS011;35012;47.200;9.748;2023-02-04T10:15:15;7.53;;;6.60;;
49175;SDS011;35012;47.200;9.748;2023-02-04T10:17:43;7.90;;;6.93;;
49175;SDS011;35012;47.200;9.748;2023-02-04T10:20:13;8.37;;;7.27;;
49175;SDS011;35012;47.200;9.748;2023-02-04T10:22:40;8.67;;;7.77;;
49175;SDS011;35012;47.200;9.748;2023-02-04T10:25:14;8.90;;;8.00;;
49175;SDS011;35012;47.200;9.748;2023-02-04T10:27:48;7.83;;;7.03;;
49175;SDS011;35012;47.200;9.748;2023-02-04T10:30:21;7.80;;;6.90;;
49175;SDS011;35012;47.200;9.748;2023-02-04T10:32:57;7.47;;;6.70;;
49175;SDS011;35012;47.200;9.748;2023-02-04T10:35:24;7.43;;;6.60;;
49175;SDS011;35012;47.200;9.748;2023-02-04T10:38:02;7.57;;;6.13;;
49175;SDS011;35012;47.200;9.748;2023-02-04T10:40:30;7.37;;;6.67;;
49175;SDS011;35012;47.200;9.748;2023-02-04T10:42:57;7.00;;;6.30;;
49175;SDS011;35012;47.200;9.748;2023-02-04T10:45:24;9.50;;;8.30;;
49175;SDS011;35012;47.200;9.748;2023-02-04T10:47:53;9.40;;;8.40;;
49175;SDS011;35012;47.200;9.748;2023-02-04T10:50:20;9.50;;;8.47;;
49175;SDS011;35012;47.200;9.748;2023-02-04T10:52:50;8.63;;;7.77;;
49175;SDS011;35012;47.200;9.748;2023-02-04T10:55:20;9.23;;;8.33;;
49175;SDS011;35012;47.200;9.748;2023-02-04T10:57:47;9.80;;;8.80;;
49175;SDS011;35012;47.200;9.748;2023-02-04T11:02:47;12.47;;;9.60;;
49175;SDS011;35012;47.200;9.748;2023-02-04T11:05:23;9.13;;;8.23;;
49175;SDS011;35012;47.200;9.748;2023-02-04T11:07:53;8.53;;;7.73;;
49175;SDS011;35012;47.200;9.748;2023-02-04T11:10:19;10.13;;;9.10;;
49175;SDS011;35012;47.200;9.748;2023-02-04T11:12:58;9.73;;;8.33;;
49175;SDS011;35012;47.200;9.748;2023-02-04T11:18:09;9.60;;;7.53;;
49175;SDS011;35012;47.200;9.748;2023-02-04T11:20:36;8.40;;;7.57;;
49175;SDS011;35012;47.200;9.748;2023-02-04T11:26:07;9.23;;;7.33;;
49175;SDS011;35012;47.200;9.748;2023-02-04T11:29:21;7.63;;;6.93;;
49175;SDS011;35012;47.200;9.748;2023-02-04T11:31:25;9.10;;;7.60;;
49175;SDS011;35012;47.200;9.748;2023-02-04T11:42:29;7.87;;;6.60;;
49175;SDS011;35012;47.200;9.748;2023-02-04T11:45:13;9.90;;;7.23;;
49175;SDS011;35012;47.200;9.748;2023-02-04T11:47:52;17.90;;;10.83;;
49175;SDS011;35012;47.200;9.748;2023-02-04T11:50:22;23.60;;;18.30;;
49175;SDS011;35012;47.200;9.748;2023-02-04T11:52:50;16.40;;;12.67;;
49175;SDS011;35012;47.200;9.748;2023-02-04T11:55:18;11.17;;;8.97;;
49175;SDS011;35012;47.200;9.748;2023-02-04T11:57:44;10.23;;;8.73;;
49175;SDS011;35012;47.200;9.748;2023-02-04T12:00:13;9.07;;;6.53;;
49175;SDS011;35012;47.200;9.748;2023-02-04T12:02:49;5.93;;;5.10;;
49175;SDS011;35012;47.200;9.748;2023-02-04T12:05:19;6.93;;;4.63;;
49175;SDS011;35012;47.200;9.748;2023-02-04T12:07:45;4.97;;;4.50;;
49175;SDS011;35012;47.200;9.748;2023-02-04T12:10:21;5.20;;;4.70;;
49175;SDS011;35012;47.200;9.748;2023-02-04T12:12:53;6.47;;;5.27;;
49175;SDS011;35012;47.200;9.748;2023-02-04T12:15:23;6.30;;;5.50;;
49175;SDS011;35012;47.200;9.748;2023-02-04T12:18:02;6.03;;;5.03;;
49175;SDS011;35012;47.200;9.748;2023-02-04T12:20:40;6.10;;;4.23;;
49175;SDS011;35012;47.200;9.748;2023-02-04T12:23:05;7.00;;;4.43;;
49175;SDS011;35012;47.200;9.748;2023-02-04T12:25:33;6.17;;;5.13;;
49175;SDS011;35012;47.200;9.748;2023-02-04T12:27:58;5.57;;;4.60;;
49175;SDS011;35012;47.200;9.748;2023-02-04T12:30:24;6.13;;;4.30;;
49175;SDS011;35012;47.200;9.748;2023-02-04T12:32:50;5.10;;;4.53;;
49175;SDS011;35012;47.200;9.748;2023-02-04T12:35:16;6.43;;;4.90;;
49175;SDS011;35012;47.200;9.748;2023-02-04T12:37:42;5.27;;;4.60;;
49175;SDS011;35012;47.200;9.748;2023-02-04T12:40:17;7.27;;;4.57;;
49175;SDS011;35012;47.200;9.748;2023-02-04T12:42:44;7.20;;;5.47;;
49175;SDS011;35012;47.200;9.748;2023-02-04T12:45:10;6.30;;;5.30;;
49175;SDS011;35012;47.200;9.748;2023-02-04T12:47:37;6.80;;;4.73;;
49175;SDS011;35012;47.200;9.748;2023-02-04T12:50:03;5.10;;;3.73;;
49175;SDS011;35012;47.200;9.748;2023-02-04T12:52:29;5.43;;;3.57;;
49175;SDS011;35012;47.200;9.748;2023-02-04T12:54:55;5.00;;;2.10;;
49175;SDS011;35012;47.200;9.748;2023-02-04T12:57:20;7.53;;;3.20;;
49175;SDS011;35012;47.200;9.748;2023-02-04T12:59:46;3.83;;;2.33;;
49175;SDS011;35012;47.200;9.748;2023-02-04T13:02:12;5.90;;;1.93;;
49175;SDS011;35012;47.200;9.748;2023-02-04T13:04:38;3.47;;;2.00;;
49175;SDS011;35012;47.200;9.748;2023-02-04T13:07:04;3.33;;;1.90;;
49175;SDS011;35012;47.200;9.748;2023-02-04T13:09:32;4.50;;;2.20;;
49175;SDS011;35012;47.200;9.748;2023-02-04T13:11:58;5.73;;;2.50;;
49175;SDS011;35012;47.200;9.748;2023-02-04T13:14:23;5.67;;;3.97;;
49175;SDS011;35012;47.200;9.748;2023-02-04T13:16:49;5.37;;;3.40;;
49175;SDS011;35012;47.200;9.748;2023-02-04T13:19:14;4.90;;;2.10;;
49175;SDS011;35012;47.200;9.748;2023-02-04T13:21:40;6.83;;;5.30;;
49175;SDS011;35012;47.200;9.748;2023-02-04T13:24:06;5.00;;;3.87;;
49175;SDS011;35012;47.200;9.748;2023-02-04T13:26:31;3.27;;;2.53;;
49175;SDS011;35012;47.200;9.748;2023-02-04T13:28:57;3.80;;;3.13;;
49175;SDS011;35012;47.200;9.748;2023-02-04T13:31:22;5.50;;;3.63;;
49175;SDS011;35012;47.200;9.748;2023-02-04T13:33:48;7.80;;;3.90;;
49175;SDS011;35012;47.200;9.748;2023-02-04T13:36:13;6.80;;;3.57;;
49175;SDS011;35012;47.200;9.748;2023-02-04T13:38:39;5.63;;;3.27;;
49175;SDS011;35012;47.200;9.748;2023-02-04T13:41:04;5.90;;;3.63;;
49175;SDS011;35012;47.200;9.748;2023-02-04T13:43:30;4.27;;;2.53;;
49175;SDS011;35012;47.200;9.748;2023-02-04T13:45:55;5.77;;;3.27;;
49175;SDS011;35012;47.200;9.748;2023-02-04T13:48:21;13.00;;;11.70;;
49175;SDS011;35012;47.200;9.748;2023-02-04T13:50:47;11.43;;;9.20;;
49175;SDS011;35012;47.200;9.748;2023-02-04T13:53:14;8.07;;;7.17;;
49175;SDS011;35012;47.200;9.748;2023-02-04T13:55:40;5.63;;;3.70;;
49175;SDS011;35012;47.200;9.748;2023-02-04T13:58:06;6.97;;;4.03;;
49175;SDS011;35012;47.200;9.748;2023-02-04T14:00:31;6.20;;;2.93;;
49175;SDS011;35012;47.200;9.748;2023-02-04T14:02:57;5.93;;;3.30;;
49175;SDS011;35012;47.200;9.748;2023-02-04T14:05:22;5.57;;;3.40;;
49175;SDS011;35012;47.200;9.748;2023-02-04T14:07:48;5.77;;;3.23;;
49175;SDS011;35012;47.200;9.748;2023-02-04T14:10:15;6.30;;;3.47;;
49175;SDS011;35012;47.200;9.748;2023-02-04T14:12:42;4.93;;;2.73;;
49175;SDS011;35012;47.200;9.748;2023-02-04T14:15:07;3.93;;;2.40;;
49175;SDS011;35012;47.200;9.748;2023-02-04T14:17:33;4.67;;;2.87;;
49175;SDS011;35012;47.200;9.748;2023-02-04T14:19:59;6.93;;;3.10;;
49175;SDS011;35012;47.200;9.748;2023-02-04T14:22:24;3.93;;;2.10;;
49175;SDS011;35012;47.200;9.748;2023-02-04T14:24:50;5.80;;;2.23;;
49175;SDS011;35012;47.200;9.748;2023-02-04T14:27:15;6.07;;;2.37;;
49175;SDS011;35012;47.200;9.748;2023-02-04T14:29:40;5.73;;;2.30;;
49175;SDS011;35012;47.200;9.748;2023-02-04T14:32:06;4.57;;;2.00;;
49175;SDS011;35012;47.200;9.748;2023-02-04T14:34:32;3.97;;;2.23;;
49175;SDS011;35012;47.200;9.748;2023-02-04T14:36:58;6.33;;;2.70;;
49175;SDS011;35012;47.200;9.748;2023-02-04T14:39:23;5.97;;;2.50;;
49175;SDS011;35012;47.200;9.748;2023-02-04T14:41:49;6.07;;;2.23;;
49175;SDS011;35012;47.200;9.748;2023-02-04T14:44:14;4.30;;;2.50;;
49175;SDS011;35012;47.200;9.748;2023-02-04T14:46:45;4.60;;;2.17;;
49175;SDS011;35012;47.200;9.748;2023-02-04T14:49:13;4.33;;;2.20;;
49175;SDS011;35012;47.200;9.748;2023-02-04T14:51:39;6.10;;;2.90;;
49175;SDS011;35012;47.200;9.748;2023-02-04T14:54:04;6.07;;;2.63;;
49175;SDS011;35012;47.200;9.748;2023-02-04T14:56:30;6.27;;;2.67;;
49175;SDS011;35012;47.200;9.748;2023-02-04T14:58:55;5.37;;;2.57;;
49175;SDS011;35012;47.200;9.748;2023-02-04T15:01:21;6.70;;;3.47;;
49175;SDS011;35012;47.200;9.748;2023-02-04T15:03:46;4.43;;;2.40;;